< Cyclone 198912 1989 Season Cyclone 199001 >
Cyclone 198913 (UNNAMED)
General InformationTrack Information on Google MapsDetailed Wind InformationList of All Images || ResourceGoogle EarthGE AnimationAtom FeedGeoJSON
Detalied Best Track (Time Zone = UTC)
Year Month Day Hour Lat. Long. Pressure (hPa) Wind (kt) Class Image Chart
1988 11 5 06 -8.3 99.5 -1 23 2 Image --
1988 11 5 12 -8.3 99.7 -1 23 2 Image --
1988 11 5 18 -8.6 99.7 -1 23 2 Image --
1988 11 6 00 -8.6 99.5 -1 23 2 Image --
1988 11 6 06 -8.0 99.3 -1 23 2 Image --
1988 11 6 12 -7.4 99.2 -1 23 2 Image --
1988 11 6 18 -7.2 99.3 -1 23 2 Image --
1988 11 7 00 -7.3 99.1 -1 23 2 Image --
1988 11 7 06 -7.2 98.2 -1 23 2 Image --
1988 11 7 12 -7.1 97.6 -1 23 2 Image --
1988 11 7 18 -7.0 97.3 -1 27 2 Image --
1988 11 8 00 -7.0 96.8 -1 33 2 Image --
1988 11 8 06 -6.8 96.3 -1 43 3 Image --
1988 11 8 12 -6.8 95.9 -1 47 3 Image --
1988 11 8 18 -6.8 95.4 -1 53 4 Image --
1988 11 9 00 -6.8 94.9 -1 53 4 Image --
1988 11 9 06 -6.8 94.5 -1 53 4 Image --
1988 11 9 12 -6.6 94.1 -1 53 4 Image --
1988 11 9 18 -6.4 93.6 -1 53 4 Image --
1988 11 10 00 -6.2 93.0 -1 53 4 Image --
1988 11 10 06 -6.0 92.6 -1 53 4 Image --
1988 11 10 12 -6.0 92.2 -1 53 4 Image --
1988 11 10 18 -6.0 91.8 -1 53 4 Image --
1988 11 11 00 -6.0 91.2 -1 53 4 Image --
1988 11 11 06 -6.1 90.6 -1 53 4 Image --
1988 11 11 12 -6.3 90.1 -1 53 4 Image --
1988 11 11 18 -6.4 89.3 -1 56 4 Image --
1988 11 12 00 -6.6 88.4 -1 60 4 Image --
1988 11 12 06 -7.0 87.4 -1 60 4 Image --
1988 11 12 12 -7.2 86.6 -1 60 4 Image --
1988 11 12 18 -7.5 85.9 -1 60 4 Image --
1988 11 13 00 -7.8 85.3 -1 60 4 Image --
1988 11 13 06 -8.4 84.6 -1 60 4 Image --
1988 11 13 12 -9.1 83.7 -1 60 4 Image --
1988 11 13 18 -9.6 82.6 -1 60 4 Image --
1988 11 14 00 -10.0 81.1 -1 60 4 Image --
1988 11 14 06 -10.2 79.8 -1 66 5 Image --
1988 11 14 12 -10.3 78.9 -1 70 5 Image --
1988 11 14 18 -10.5 78.2 -1 76 5 Image --
1988 11 15 00 -10.9 77.1 -1 80 5 Image --
1988 11 15 06 -11.4 75.9 -1 84 5 Image --
1988 11 15 12 -12.0 75.0 -1 84 5 Image --
1988 11 15 18 -12.5 74.1 -1 84 5 Image --
1988 11 16 00 -12.8 73.4 -1 89 5 Image --
1988 11 16 06 -13.3 72.4 -1 93 5 Image --
1988 11 16 12 -13.7 71.8 -1 93 5 Image --
1988 11 16 18 -14.0 71.4 -1 84 5 Image --
1988 11 17 00 -14.3 71.0 -1 84 5 Image --
1988 11 17 06 -14.6 70.4 -1 84 5 Image --
1988 11 17 12 -15.0 69.8 -1 89 5 Image --
1988 11 17 18 -15.3 69.4 -1 93 5 Image --
1988 11 18 00 -15.6 68.9 -1 84 5 Image --
1988 11 18 06 -15.8 68.6 -1 76 5 Image --
1988 11 18 12 -16.2 68.3 -1 80 5 Image --
1988 11 18 18 -16.6 68.1 -1 84 5 Image --
1988 11 19 00 -17.0 67.7 -1 76 5 Image --
1988 11 19 06 -17.6 67.2 -1 60 4 Image --
1988 11 19 12 -17.8 66.6 -1 47 3 Image --
1988 11 19 18 -18.1 66.2 -1 43 3 Image --
1988 11 20 00 -18.3 65.8 -1 37 3 Image --
1988 11 20 06 -18.4 65.6 -1 33 2 Image --
1988 11 20 12 -18.4 65.4 -1 27 2 Image --
< Cyclone 198912 1989 Season Cyclone 199001 >

Help